createdAt,value
2023-04-03T00:02:02.642Z,99079.44
2023-04-03T00:04:29.558Z,99072.59
2023-04-03T00:06:56.376Z,99079.63
2023-04-03T00:09:23.044Z,99076.59
2023-04-03T00:11:49.781Z,99080.28
2023-04-03T00:14:16.488Z,99076.59
2023-04-03T00:16:43.361Z,99081.38
2023-04-03T00:21:45.838Z,99082.75
2023-04-03T00:24:12.535Z,99083.63
2023-04-03T00:29:12.332Z,99076.25
2023-04-03T00:31:38.993Z,99080.91
2023-04-03T00:34:05.631Z,99079.63
2023-04-03T00:36:32.350Z,99077.44
2023-04-03T00:38:59.091Z,99080.59
2023-04-03T00:41:26.720Z,99076.13
2023-04-03T00:43:53.647Z,99088.03
2023-04-03T00:46:20.690Z,99077.03
2023-04-03T00:48:49.201Z,99084.06
2023-04-03T00:51:19.189Z,99082.84
2023-04-03T00:56:24.829Z,99077.91
2023-04-03T00:58:57.719Z,99073.94
2023-04-03T01:01:27.689Z,99068.81
2023-04-03T01:03:54.606Z,99076.44
2023-04-03T01:06:26.400Z,99070.09
2023-04-03T01:08:53.675Z,99080.75
2023-04-03T01:11:21.878Z,99080.50
2023-04-03T01:13:48.541Z,99067.22
2023-04-03T01:16:15.265Z,99073.81
2023-04-03T01:18:43.312Z,99070.69
2023-04-03T01:21:40.210Z,99078.19
2023-04-03T01:24:23.726Z,99075.84
2023-04-03T01:26:51.514Z,99074.00
2023-04-03T01:29:18.142Z,99081.25
2023-04-03T01:31:49.756Z,99075.09
2023-04-03T01:34:16.650Z,99079.41
2023-04-03T01:36:44.091Z,99079.25
2023-04-03T01:39:10.934Z,99075.09
2023-04-03T01:41:37.924Z,99074.59
2023-04-03T01:44:05.389Z,99076.22
2023-04-03T01:54:18.026Z,99081.25
2023-04-03T01:56:44.715Z,99085.63
2023-04-03T01:59:11.546Z,99086.44
2023-04-03T02:01:38.283Z,99077.75
2023-04-03T02:04:04.966Z,99084.22
2023-04-03T02:06:31.668Z,99085.50
2023-04-03T02:08:58.282Z,99082.50
2023-04-03T02:11:24.971Z,99077.38
2023-04-03T02:13:51.614Z,99080.28
2023-04-03T02:16:18.488Z,99082.38
2023-04-03T02:18:45.185Z,99081.38
2023-04-03T02:21:11.874Z,99085.63
2023-04-03T02:23:38.617Z,99081.34
2023-04-03T02:26:11.347Z,99081.34
2023-04-03T02:28:38.885Z,99086.16
2023-04-03T02:31:07.643Z,99085.44
2023-04-03T02:36:09.098Z,99083.38
2023-04-03T02:38:36.351Z,99088.41
2023-04-03T02:41:08.545Z,99086.44
2023-04-03T02:43:36.138Z,99083.41
2023-04-03T02:46:02.898Z,99088.19
2023-04-03T02:48:29.948Z,99084.88
2023-04-03T02:50:56.724Z,99093.94
2023-04-03T02:53:24.204Z,99092.09
2023-04-03T02:55:50.989Z,99090.13
2023-04-03T02:58:17.746Z,99088.78
2023-04-03T03:00:44.795Z,99090.81
2023-04-03T03:03:11.578Z,99088.19
2023-04-03T03:05:38.223Z,99090.72
2023-04-03T03:08:04.923Z,99088.81
2023-04-03T03:10:31.617Z,99093.44
2023-04-03T03:12:58.339Z,99092.19
2023-04-03T03:15:24.977Z,99090.50
2023-04-03T03:17:51.617Z,99090.34
2023-04-03T03:20:18.478Z,99090.34
2023-04-03T03:22:45.117Z,99087.03
2023-04-03T03:25:11.780Z,99091.22
2023-04-03T03:27:38.581Z,99095.81
2023-04-03T03:30:06.898Z,99093.88
2023-04-03T03:32:33.583Z,99087.66
2023-04-03T03:37:37.812Z,99091.22
2023-04-03T03:40:04.762Z,99085.69
2023-04-03T03:42:31.409Z,99092.44
2023-04-03T03:44:58.080Z,99095.94
2023-04-03T03:47:24.778Z,99096.56
2023-04-03T03:49:51.756Z,99089.88
2023-04-03T03:52:19.005Z,99087.34
2023-04-03T03:54:45.758Z,99089.13
2023-04-03T03:57:12.648Z,99096.38
2023-04-03T04:02:17.742Z,99096.31
2023-04-03T04:04:44.525Z,99098.69
2023-04-03T04:07:11.314Z,99098.69
2023-04-03T04:09:37.994Z,99096.84
2023-04-03T04:12:04.852Z,99094.75
2023-04-03T04:14:31.543Z,99100.31
2023-04-03T04:19:35.466Z,99095.44
2023-04-03T04:22:02.217Z,99095.38
2023-04-03T04:24:28.912Z,99086.84
2023-04-03T04:26:55.677Z,99086.16
2023-04-03T04:29:22.363Z,99082.38
2023-04-03T04:31:48.978Z,99100.47
2023-04-03T04:34:16.291Z,99091.25
2023-04-03T04:36:43.529Z,99091.25
2023-04-03T04:39:10.403Z,99091.31
2023-04-03T04:46:51.593Z,99092.41
2023-04-03T04:49:18.360Z,99100.31
2023-04-03T04:51:51.997Z,99099.38
2023-04-03T04:54:19.339Z,99101.22
2023-04-03T04:56:46.102Z,99102.31
2023-04-03T04:59:12.826Z,99102.41
2023-04-03T05:01:39.988Z,99102.31
2023-04-03T05:04:06.943Z,99110.44
2023-04-03T05:06:34.130Z,99109.19
2023-04-03T05:09:01.230Z,99109.03
2023-04-03T05:16:45.095Z,99110.59
2023-04-03T05:21:49.260Z,99116.59
2023-04-03T05:24:17.388Z,99116.97
2023-04-03T05:31:43.269Z,99127.97
2023-04-03T05:34:10.001Z,99119.50
2023-04-03T05:36:36.727Z,99127.63
2023-04-03T05:39:04.008Z,99127.28
2023-04-03T05:41:31.073Z,99134.63
2023-04-03T05:43:57.737Z,99131.41
2023-04-03T05:46:24.532Z,99135.59
2023-04-03T05:48:51.697Z,99131.81
2023-04-03T05:51:25.109Z,99136.59
2023-04-03T05:54:06.084Z,99138.13
2023-04-03T05:56:32.720Z,99127.97
2023-04-03T05:58:59.757Z,99142.53
2023-04-03T06:01:26.526Z,99136.66
2023-04-03T06:03:53.359Z,99139.66
2023-04-03T06:06:20.173Z,99143.47
2023-04-03T06:08:47.420Z,99148.88
2023-04-03T06:11:14.158Z,99143.59
2023-04-03T06:13:40.903Z,99149.97
2023-04-03T06:16:07.718Z,99150.84
2023-04-03T06:18:34.396Z,99156.59
2023-04-03T06:21:02.070Z,99155.41
2023-04-03T06:26:01.681Z,99160.31
2023-04-03T06:28:28.469Z,99162.50
2023-04-03T06:30:55.159Z,99170.28
2023-04-03T06:33:21.833Z,99169.53
2023-04-03T06:35:48.531Z,99167.34
2023-04-03T06:38:15.231Z,99165.84
2023-04-03T06:40:41.961Z,99169.53
2023-04-03T06:43:08.734Z,99171.81
2023-04-03T06:45:35.914Z,99176.78
2023-04-03T06:48:02.883Z,99170.94
2023-04-03T06:50:29.565Z,99174.00
2023-04-03T06:52:56.271Z,99168.09
2023-04-03T06:55:23.116Z,99171.34
2023-04-03T06:57:49.793Z,99174.38
2023-04-03T07:00:17.471Z,99172.84
2023-04-03T07:02:44.246Z,99178.84
2023-04-03T07:05:10.967Z,99181.72
2023-04-03T07:07:38.964Z,99185.28
2023-04-03T07:10:08.802Z,99183.88
2023-04-03T07:12:35.847Z,99181.84
2023-04-03T07:20:07.874Z,99191.81
2023-04-03T07:22:34.566Z,99188.91
2023-04-03T07:25:01.249Z,99185.78
2023-04-03T07:27:28.154Z,99192.00
2023-04-03T07:29:56.222Z,99193.44
2023-04-03T07:32:23.308Z,99195.22
2023-04-03T07:34:50.011Z,99196.03
2023-04-03T07:37:19.055Z,99198.19
2023-04-03T07:39:46.320Z,99198.06
2023-04-03T07:42:13.702Z,99205.41
2023-04-03T07:44:40.378Z,99199.09
2023-04-03T07:47:07.074Z,99201.59
2023-04-03T07:49:34.279Z,99211.41
2023-04-03T07:52:01.241Z,99209.34
2023-04-03T07:54:28.115Z,99207.00
2023-04-03T07:56:54.816Z,99210.03
2023-04-03T07:59:21.561Z,99210.03
2023-04-03T08:01:48.182Z,99206.19
2023-04-03T08:04:15.150Z,99210.16
2023-04-03T08:06:46.605Z,99201.91
2023-04-03T08:09:16.522Z,99212.75
2023-04-03T08:11:43.925Z,99218.47
2023-04-03T08:14:16.667Z,99224.84
2023-04-03T08:16:45.106Z,99213.69
2023-04-03T08:19:22.261Z,99219.78
2023-04-03T08:21:49.569Z,99221.53
2023-04-03T08:24:16.539Z,99217.22
2023-04-03T08:26:43.201Z,99218.66
2023-04-03T08:29:09.871Z,99208.75
2023-04-03T08:31:36.675Z,99220.25
2023-04-03T08:34:03.387Z,99217.19
2023-04-03T08:36:30.828Z,99219.53
2023-04-03T08:38:58.241Z,99216.03
2023-04-03T08:47:22.647Z,99211.78
2023-04-03T08:50:03.074Z,99212.84
2023-04-03T08:52:39.847Z,99210.94
2023-04-03T08:55:17.105Z,99212.78
2023-04-03T08:57:46.819Z,99222.88
2023-04-03T09:00:20.994Z,99216.41
2023-04-03T09:02:49.959Z,99218.72
2023-04-03T09:05:25.454Z,99218.28
2023-04-03T09:08:27.264Z,99227.63
2023-04-03T09:11:08.503Z,99239.69
2023-04-03T09:14:06.241Z,99219.22
2023-04-03T09:17:01.484Z,99228.47
2023-04-03T09:19:34.004Z,99223.47
2023-04-03T09:25:07.346Z,99215.69
2023-04-03T09:27:34.003Z,99230.28
2023-04-03T09:30:00.701Z,99219.41
2023-04-03T09:32:28.989Z,99224.81
2023-04-03T09:35:01.581Z,99212.00
2023-04-03T09:37:44.826Z,99215.25
2023-04-03T09:40:29.392Z,99220.09
2023-04-03T09:43:01.729Z,99223.28
2023-04-03T09:45:28.765Z,99219.47
2023-04-03T09:48:19.369Z,99227.72
2023-04-03T09:50:52.509Z,99227.38
2023-04-03T09:53:34.349Z,99225.00
2023-04-03T09:56:02.155Z,99224.06
2023-04-03T09:58:49.728Z,99231.91
2023-04-03T10:01:31.474Z,99229.22
2023-04-03T10:04:07.325Z,99223.28
2023-04-03T10:06:41.970Z,99225.84
2023-04-03T10:09:28.321Z,99225.25
2023-04-03T10:12:08.210Z,99227.16
2023-04-03T10:14:37.690Z,99219.31
2023-04-03T10:17:24.452Z,99220.09
2023-04-03T10:20:26.323Z,99206.38
2023-04-03T10:23:17.952Z,99217.25
2023-04-03T10:25:50.984Z,99201.88
2023-04-03T10:28:36.028Z,99207.81
2023-04-03T10:34:15.238Z,99205.88
2023-04-03T10:36:47.924Z,99210.19
2023-04-03T10:39:20.571Z,99208.09
2023-04-03T10:42:08.962Z,99207.34
2023-04-03T10:45:00.194Z,99199.66
2023-04-03T10:47:47.800Z,99200.28
2023-04-03T10:50:40.494Z,99203.34
2023-04-03T10:53:36.722Z,99211.00
2023-04-03T10:56:17.338Z,99202.69
2023-04-03T10:58:48.230Z,99203.16
2023-04-03T11:01:21.839Z,99202.22
2023-04-03T11:03:54.320Z,99208.13
2023-04-03T11:06:24.918Z,99206.84
2023-04-03T11:09:00.155Z,99197.41
2023-04-03T11:11:33.836Z,99190.22
2023-04-03T11:14:14.516Z,99201.44
2023-04-03T11:16:53.569Z,99198.38
2023-04-03T11:19:27.072Z,99214.50
2023-04-03T11:22:08.295Z,99200.97
2023-04-03T11:24:39.619Z,99195.94
2023-04-03T11:27:06.571Z,99191.13
2023-04-03T11:29:37.783Z,99191.59
2023-04-03T11:32:28.631Z,99192.03
2023-04-03T11:37:33.885Z,99184.66
2023-04-03T11:40:27.784Z,99188.97
2023-04-03T11:43:05.964Z,99185.41
2023-04-03T11:45:38.496Z,99177.38
2023-04-03T11:48:28.424Z,99182.34
2023-04-03T11:51:13.638Z,99183.66
2023-04-03T11:53:43.028Z,99185.56
2023-04-03T11:56:24.819Z,99174.84
2023-04-03T11:59:13.419Z,99185.72
2023-04-03T12:01:59.618Z,99165.00
2023-04-03T12:04:28.316Z,99164.16
2023-04-03T12:07:19.124Z,99158.13
2023-04-03T12:09:45.780Z,99161.22
2023-04-03T12:12:32.432Z,99165.19
2023-04-03T12:15:23.122Z,99163.56
2023-04-03T12:17:50.088Z,99162.53
2023-04-03T12:21:08.157Z,99170.13
2023-04-03T12:23:37.478Z,99160.59
2023-04-03T12:26:20.625Z,99167.16
2023-04-03T12:28:48.029Z,99163.41
2023-04-03T12:31:15.989Z,99153.16
2023-04-03T12:33:57.937Z,99161.25
2023-04-03T12:36:38.984Z,99151.66
2023-04-03T12:39:09.327Z,99154.00
2023-04-03T12:41:51.454Z,99164.44
2023-04-03T12:44:39.066Z,99156.94
2023-04-03T12:47:22.898Z,99151.94
2023-04-03T12:49:52.597Z,99152.53
2023-04-03T12:55:20.225Z,99150.66
2023-04-03T12:57:47.343Z,99140.09
2023-04-03T13:00:40.979Z,99140.34
2023-04-03T13:03:23.118Z,99139.75
2023-04-03T13:05:50.031Z,99138.94
2023-04-03T13:08:20.345Z,99134.97
2023-04-03T13:11:13.089Z,99140.94
2023-04-03T13:13:40.627Z,99138.53
2023-04-03T13:16:12.862Z,99137.03
2023-04-03T13:18:39.619Z,99127.56
2023-04-03T13:21:14.794Z,99126.94
2023-04-03T13:23:46.031Z,99132.94
2023-04-03T13:26:13.158Z,99129.22
2023-04-03T13:28:41.864Z,99124.06
2023-04-03T13:31:15.309Z,99128.56
2023-04-03T13:33:56.175Z,99121.19
2023-04-03T13:36:28.474Z,99117.53
2023-04-03T13:39:16.741Z,99116.00
2023-04-03T13:41:49.186Z,99115.66
2023-04-03T13:44:28.527Z,99115.84
2023-04-03T13:47:13.464Z,99119.03
2023-04-03T13:49:44.083Z,99114.44
2023-04-03T13:52:37.165Z,99124.88
2023-04-03T13:55:48.371Z,99122.47
2023-04-03T13:58:09.487Z,99128.47
2023-04-03T14:03:53.024Z,99120.63
2023-04-03T14:06:19.872Z,99117.44
2023-04-03T14:08:47.350Z,99124.19
2023-04-03T14:11:17.479Z,99128.47
2023-04-03T14:13:47.257Z,99126.59
2023-04-03T14:16:20.960Z,99124.78
2023-04-03T14:18:49.124Z,99115.50
2023-04-03T14:21:17.763Z,99127.09
2023-04-03T14:23:45.394Z,99118.69
2023-04-03T14:26:21.621Z,99107.00
2023-04-03T14:28:52.573Z,99113.97
2023-04-03T14:31:20.151Z,99108.72
2023-04-03T14:33:47.793Z,99099.03
2023-04-03T14:36:26.525Z,99101.31
2023-04-03T14:38:54.273Z,99096.16
2023-04-03T14:41:23.904Z,99095.50
2023-04-03T14:43:51.632Z,99106.06
2023-04-03T14:46:45.513Z,99099.63
2023-04-03T14:49:23.017Z,99101.22
2023-04-03T14:51:49.712Z,99098.44
2023-04-03T14:54:20.159Z,99088.75
2023-04-03T14:56:47.210Z,99098.44
2023-04-03T15:01:49.663Z,99088.78
2023-04-03T15:04:19.149Z,99093.16
2023-04-03T15:06:47.879Z,99107.44
2023-04-03T15:09:26.197Z,99094.44
2023-04-03T15:14:36.175Z,99094.28
2023-04-03T15:19:54.833Z,99089.84
2023-04-03T15:22:21.700Z,99096.06
2023-04-03T15:24:48.662Z,99097.94
2023-04-03T15:27:16.609Z,99091.66
2023-04-03T15:29:44.880Z,99084.00
2023-04-03T15:32:11.842Z,99098.44
2023-04-03T15:34:39.443Z,99096.38
2023-04-03T15:37:06.704Z,99097.19
2023-04-03T15:39:33.455Z,99083.84
2023-04-03T15:42:07.340Z,99100.03
2023-04-03T15:44:35.688Z,99095.25
2023-04-03T15:47:03.628Z,99089.69
2023-04-03T15:49:31.781Z,99105.06
2023-04-03T15:51:58.451Z,99094.59
2023-04-03T15:54:25.935Z,99097.22
2023-04-03T15:56:53.446Z,99089.59
2023-04-03T15:59:20.874Z,99088.47
2023-04-03T16:01:48.152Z,99086.09
2023-04-03T16:04:15.820Z,99095.50
2023-04-03T16:06:43.589Z,99092.34
2023-04-03T16:09:11.374Z,99094.94
2023-04-03T16:11:40.400Z,99086.31
2023-04-03T16:14:11.085Z,99086.50
2023-04-03T16:16:38.198Z,99087.84
2023-04-03T16:19:06.057Z,99091.69
2023-04-03T16:21:33.827Z,99097.78
2023-04-03T16:26:38.536Z,99095.22
2023-04-03T16:29:05.286Z,99098.31
2023-04-03T16:31:33.924Z,99094.22
2023-04-03T16:34:01.586Z,99090.16
2023-04-03T16:36:28.420Z,99088.44
2023-04-03T16:38:55.189Z,99087.34
2023-04-03T16:41:21.888Z,99089.94
2023-04-03T16:43:48.910Z,99096.50
2023-04-03T16:46:15.709Z,99091.47
2023-04-03T16:48:42.469Z,99090.47
2023-04-03T16:51:09.193Z,99097.41
2023-04-03T16:53:36.997Z,99102.84
2023-04-03T16:56:03.655Z,99094.66
2023-04-03T16:58:30.345Z,99100.66
2023-04-03T17:00:57.086Z,99097.94
2023-04-03T17:03:26.977Z,99098.78
2023-04-03T17:05:53.863Z,99106.63
2023-04-03T17:08:20.609Z,99100.41
2023-04-03T17:10:48.740Z,99104.22
2023-04-03T17:13:16.443Z,99114.84
2023-04-03T17:15:43.289Z,99106.69
2023-04-03T17:18:10.162Z,99104.59
2023-04-03T17:20:39.006Z,99096.56
2023-04-03T17:23:06.416Z,99105.06
2023-04-03T17:25:33.206Z,99101.28
2023-04-03T17:27:59.831Z,99101.28
2023-04-03T17:30:26.502Z,99097.72
2023-04-03T17:32:53.188Z,99105.56
2023-04-03T17:35:19.975Z,99105.09
2023-04-03T17:37:48.914Z,99098.06
2023-04-03T17:40:18.015Z,99100.63
2023-04-03T17:42:44.712Z,99093.78
2023-04-03T17:45:11.771Z,99099.25
2023-04-03T17:47:38.606Z,99096.03
2023-04-03T17:50:06.239Z,99096.84
2023-04-03T17:52:32.942Z,99095.28
2023-04-03T17:54:59.582Z,99097.81
2023-04-03T17:57:26.305Z,99097.38
2023-04-03T17:59:54.323Z,99098.94
2023-04-03T18:02:21.320Z,99098.28
2023-04-03T18:04:48.034Z,99102.59
2023-04-03T18:07:14.734Z,99111.06
2023-04-03T18:09:42.282Z,99103.91
2023-04-03T18:12:10.089Z,99107.25
2023-04-03T18:14:37.939Z,99113.97
2023-04-03T18:17:04.822Z,99114.78
2023-04-03T18:19:31.801Z,99117.50
2023-04-03T18:22:02.419Z,99113.34
2023-04-03T18:24:31.924Z,99121.63
2023-04-03T18:27:10.107Z,99121.47
2023-04-03T18:29:38.746Z,99119.88
2023-04-03T18:32:08.055Z,99123.00
2023-04-03T18:34:34.799Z,99125.63
2023-04-03T18:37:03.326Z,99118.72
2023-04-03T18:39:30.509Z,99119.34
2023-04-03T18:44:33.949Z,99131.13
2023-04-03T18:47:00.851Z,99130.81
2023-04-03T18:49:32.916Z,99130.44
2023-04-03T18:51:59.842Z,99128.22
2023-04-03T18:54:26.516Z,99131.06
2023-04-03T18:56:53.122Z,99130.47
2023-04-03T18:59:19.895Z,99128.53
2023-04-03T19:01:46.765Z,99131.22
2023-04-03T19:04:13.982Z,99137.56
2023-04-03T19:06:40.798Z,99134.75
2023-04-03T19:09:08.300Z,99132.19
2023-04-03T19:11:35.711Z,99126.13
2023-04-03T19:14:14.272Z,99136.78
2023-04-03T19:16:41.855Z,99134.44
2023-04-03T19:19:08.955Z,99133.78
2023-04-03T19:21:41.131Z,99135.81
2023-04-03T19:24:12.530Z,99139.50
2023-04-03T19:26:40.131Z,99142.38
2023-04-03T19:29:07.410Z,99135.16
2023-04-03T19:31:35.264Z,99138.06
2023-04-03T19:34:03.839Z,99135.47
2023-04-03T19:36:31.847Z,99135.16
2023-04-03T19:38:58.554Z,99140.41
2023-04-03T19:41:28.775Z,99134.59
2023-04-03T19:43:56.474Z,99137.97
2023-04-03T19:46:25.574Z,99137.44
2023-04-03T19:48:52.439Z,99138.75
2023-04-03T19:51:19.255Z,99152.47
2023-04-03T19:53:47.499Z,99138.19
2023-04-03T19:56:17.173Z,99143.59
2023-04-03T19:58:44.362Z,99143.28
2023-04-03T20:01:11.691Z,99140.88
2023-04-03T20:03:38.671Z,99142.91
2023-04-03T20:06:05.936Z,99143.28
2023-04-03T20:08:32.989Z,99140.03
2023-04-03T20:16:17.327Z,99149.84
2023-04-03T20:18:44.764Z,99143.84
2023-04-03T20:21:12.362Z,99152.94
2023-04-03T20:23:39.120Z,99158.34
2023-04-03T20:26:11.054Z,99152.44
2023-04-03T20:28:42.476Z,99158.03
2023-04-03T20:31:10.289Z,99152.66
2023-04-03T20:33:37.857Z,99154.53
2023-04-03T20:36:04.633Z,99147.09
2023-04-03T20:38:31.470Z,99145.78
2023-04-03T20:40:58.222Z,99154.13
2023-04-03T20:43:25.629Z,99150.34
2023-04-03T20:45:52.713Z,99148.69
2023-04-03T20:48:19.479Z,99150.50
2023-04-03T20:56:01.238Z,99149.91
2023-04-03T20:58:30.598Z,99156.06
2023-04-03T21:00:57.740Z,99152.47
2023-04-03T21:03:28.012Z,99149.75
2023-04-03T21:06:00.607Z,99141.44
2023-04-03T21:09:05.589Z,99138.47
2023-04-03T21:12:09.874Z,99142.63
2023-04-03T21:15:14.815Z,99135.88
2023-04-03T21:18:36.229Z,99138.28
2023-04-03T21:21:04.005Z,99144.31
2023-04-03T21:23:32.116Z,99136.91
2023-04-03T21:26:00.415Z,99135.31
2023-04-03T21:28:27.483Z,99139.81
2023-04-03T21:30:54.230Z,99142.31
2023-04-03T21:33:20.926Z,99137.09
2023-04-03T21:35:48.190Z,99140.41
2023-04-03T21:38:15.690Z,99128.41
2023-04-03T21:43:13.764Z,99138.50
2023-04-03T21:45:40.992Z,99149.91
2023-04-03T21:48:10.343Z,99145.53
2023-04-03T21:50:37.454Z,99141.72
2023-04-03T21:53:04.250Z,99144.53
2023-04-03T21:55:30.921Z,99147.03
2023-04-03T22:00:31.381Z,99141.72
2023-04-03T22:03:09.626Z,99145.81
2023-04-03T22:05:37.499Z,99153.31
2023-04-03T22:08:04.422Z,99151.41
2023-04-03T22:13:08.579Z,99146.28
2023-04-03T22:18:16.500Z,99151.72
2023-04-03T22:23:21.743Z,99152.19
2023-04-03T22:26:01.455Z,99158.44
2023-04-03T22:28:29.088Z,99147.88
2023-04-03T22:30:56.452Z,99153.75
2023-04-03T22:33:23.592Z,99144.00
2023-04-03T22:35:51.316Z,99148.28
2023-04-03T22:40:58.374Z,99150.69
2023-04-03T22:43:27.781Z,99151.25
2023-04-03T22:45:55.189Z,99150.25
2023-04-03T22:48:22.652Z,99149.63
2023-04-03T22:50:49.857Z,99154.13
2023-04-03T22:53:16.508Z,99151.69
2023-04-03T22:55:43.253Z,99150.75
2023-04-03T22:58:09.952Z,99151.25
2023-04-03T23:00:36.674Z,99155.59
2023-04-03T23:03:03.715Z,99152.63
2023-04-03T23:08:08.300Z,99153.63
2023-04-03T23:10:34.952Z,99151.09
2023-04-03T23:15:40.142Z,99157.91
2023-04-03T23:18:07.175Z,99161.75
2023-04-03T23:20:33.879Z,99159.59
2023-04-03T23:23:00.506Z,99153.44
2023-04-03T23:25:27.187Z,99162.69
2023-04-03T23:27:54.046Z,99167.81
2023-04-03T23:32:53.010Z,99167.81
2023-04-03T23:35:19.644Z,99165.78
2023-04-03T23:40:17.785Z,99166.31
2023-04-03T23:42:44.476Z,99169.84
2023-04-03T23:45:11.126Z,99170.13
2023-04-03T23:47:37.953Z,99161.19
2023-04-03T23:50:04.886Z,99163.66
2023-04-03T23:52:31.490Z,99162.34
2023-04-03T23:54:58.116Z,99163.88
2023-04-03T23:59:57.627Z,99155.13
